Time;durP1;ratioP1;P1;durP2;ratioP2;P2;SDS_P1;SDS_P2;PMS_P1;PMS_P2;Temp;Humidity;BMP_temperature;BMP_pressure;BME280_temperature;BME280_humidity;BME280_pressure;Samples;Min_cycle;Max_cycle;Signal;HPM_P1;HPM_P2
2023/12/30 00:01:44;;;;;;;3.00;2.77;;;8.60;99.90;;;;;;5087138;22;20577;-68
2023/12/30 00:04:09;;;;;;;3.67;2.50;;;8.70;99.90;;;;;;5082691;28;20177;-67
2023/12/30 00:06:35;;;;;;;2.50;2.30;;;8.70;99.90;;;;;;5092144;28;20949;-67
2023/12/30 00:09:00;;;;;;;2.83;2.63;;;8.80;99.90;;;;;;5092388;28;20173;-67
2023/12/30 00:11:26;;;;;;;2.53;2.00;;;8.80;99.90;;;;;;5092167;28;20173;-68
2023/12/30 00:13:51;;;;;;;2.10;2.00;;;8.80;99.90;;;;;;5092559;28;20168;-68
2023/12/30 00:16:17;;;;;;;6.00;2.80;;;8.80;99.90;;;;;;5092207;28;20176;-67
2023/12/30 00:18:43;;;;;;;2.47;2.27;;;8.80;99.90;;;;;;5092281;28;20176;-67
2023/12/30 00:21:08;;;;;;;2.83;2.40;;;8.80;99.90;;;;;;5092329;28;20160;-67
2023/12/30 00:23:35;;;;;;;2.27;2.17;;;8.80;99.90;;;;;;5092319;28;20179;-68
2023/12/30 00:26:01;;;;;;;2.97;2.70;;;8.90;99.90;;;;;;5092326;28;20178;-67
2023/12/30 00:28:26;;;;;;;2.77;2.57;;;8.90;99.90;;;;;;5083922;28;20959;-67
2023/12/30 00:30:52;;;;;;;2.43;2.23;;;9.00;99.90;;;;;;5068339;28;20465;-67
2023/12/30 00:33:17;;;;;;;3.23;2.37;;;9.00;99.90;;;;;;5070982;28;20279;-67
2023/12/30 00:35:43;;;;;;;2.60;2.40;;;9.00;99.90;;;;;;5070948;28;20203;-67
2023/12/30 00:38:08;;;;;;;3.10;2.17;;;9.00;99.90;;;;;;5070488;28;20204;-67
2023/12/30 00:40:34;;;;;;;2.83;2.40;;;9.10;99.90;;;;;;5070839;28;20740;-67
2023/12/30 00:42:59;;;;;;;2.40;2.20;;;9.00;99.90;;;;;;5070761;28;20267;-67
2023/12/30 00:45:25;;;;;;;2.20;2.00;;;9.00;99.90;;;;;;5070642;28;20180;-67
2023/12/30 00:47:51;;;;;;;8.10;3.70;;;9.00;99.90;;;;;;5070326;28;20228;-67
2023/12/30 00:50:16;;;;;;;2.10;2.00;;;9.10;99.90;;;;;;5070810;28;20234;-68
2023/12/30 00:52:42;;;;;;;2.73;2.53;;;9.10;99.90;;;;;;5068536;28;20188;-67
2023/12/30 00:55:08;;;;;;;2.40;2.20;;;9.10;99.90;;;;;;5068259;28;20552;-67
2023/12/30 00:57:33;;;;;;;2.40;2.20;;;9.10;99.90;;;;;;5057490;28;20211;-67
2023/12/30 00:59:59;;;;;;;3.60;2.20;;;9.10;99.90;;;;;;5058356;28;20169;-67
2023/12/30 01:02:24;;;;;;;2.77;2.53;;;9.10;99.90;;;;;;5056603;28;20211;-67
2023/12/30 01:04:50;;;;;;;2.40;2.30;;;9.10;99.90;;;;;;5058304;28;20177;-67
2023/12/30 01:07:15;;;;;;;3.10;2.80;;;9.10;99.90;;;;;;5056730;28;20783;-67
2023/12/30 01:09:41;;;;;;;2.43;2.30;;;9.10;99.90;;;;;;5062251;28;20172;-67
2023/12/30 01:12:07;;;;;;;2.17;2.07;;;9.00;99.90;;;;;;5057744;28;20208;-67
2023/12/30 01:14:33;;;;;;;3.47;2.90;;;9.10;99.90;;;;;;5056201;28;20174;-67
2023/12/30 01:16:58;;;;;;;3.10;2.80;;;9.00;99.90;;;;;;5056826;28;20256;-67
2023/12/30 01:19:24;;;;;;;2.60;2.40;;;9.00;99.90;;;;;;5057651;28;20510;-67
2023/12/30 01:21:50;;;;;;;2.43;2.23;;;8.90;99.90;;;;;;5062045;28;20572;-68
2023/12/30 01:24:15;;;;;;;2.87;2.67;;;8.90;99.90;;;;;;5060900;28;20436;-67
2023/12/30 01:26:41;;;;;;;2.73;2.50;;;8.90;99.90;;;;;;5060931;28;20281;-67
2023/12/30 01:29:07;;;;;;;2.70;2.40;;;8.90;99.90;;;;;;5061370;28;20192;-68
2023/12/30 01:31:34;;;;;;;2.57;2.23;;;8.90;99.90;;;;;;5060176;28;20190;-67
2023/12/30 01:34:00;;;;;;;3.03;2.80;;;8.80;99.90;;;;;;5062014;28;20521;-67
2023/12/30 01:36:25;;;;;;;3.47;3.00;;;8.80;99.90;;;;;;5059091;28;20435;-67
2023/12/30 01:38:51;;;;;;;5.43;2.50;;;8.80;99.90;;;;;;5061191;28;20181;-67
2023/12/30 01:41:18;;;;;;;5.63;2.90;;;8.80;99.90;;;;;;5059777;28;20180;-67
2023/12/30 01:43:44;;;;;;;2.70;2.50;;;8.70;99.90;;;;;;5060659;28;20431;-67
2023/12/30 01:46:10;;;;;;;3.00;2.67;;;8.60;99.90;;;;;;5060052;28;20424;-67
2023/12/30 01:48:36;;;;;;;2.60;2.40;;;8.50;99.90;;;;;;5060530;28;20177;-67
2023/12/30 01:51:02;;;;;;;3.57;2.70;;;8.50;99.90;;;;;;5059244;28;20512;-67
2023/12/30 01:53:31;;;;;;;4.30;4.00;;;8.40;99.90;;;;;;5074212;28;20442;-67
2023/12/30 01:55:58;;;;;;;5.80;2.80;;;8.40;99.90;;;;;;5074692;28;20425;-67
2023/12/30 01:58:23;;;;;;;4.90;2.70;;;8.40;99.90;;;;;;5074023;28;20803;-67
2023/12/30 02:00:54;;;;;;;4.00;3.47;;;8.40;99.90;;;;;;5074683;28;20438;-67
2023/12/30 02:03:21;;;;;;;6.80;4.17;;;8.40;99.90;;;;;;5074444;28;20269;-67
2023/12/30 02:05:47;;;;;;;3.40;3.10;;;8.40;99.90;;;;;;5074501;28;20510;-68
2023/12/30 02:08:14;;;;;;;3.37;3.03;;;8.40;99.90;;;;;;5073925;28;20935;-67
2023/12/30 02:10:40;;;;;;;3.50;3.20;;;8.30;99.90;;;;;;5074101;28;20579;-67
2023/12/30 02:13:05;;;;;;;3.83;2.70;;;8.30;99.90;;;;;;5074137;28;20461;-67
2023/12/30 02:15:31;;;;;;;5.00;3.30;;;8.20;99.90;;;;;;5073798;28;20660;-67
2023/12/30 02:17:56;;;;;;;4.60;3.00;;;8.20;99.90;;;;;;5073947;28;20179;-67
2023/12/30 02:20:23;;;;;;;3.63;3.33;;;8.20;99.90;;;;;;5074314;28;20535;-67
2023/12/30 02:22:49;;;;;;;3.40;3.10;;;8.10;99.90;;;;;;5074052;28;20193;-67
2023/12/30 02:25:15;;;;;;;3.73;3.43;;;8.10;99.90;;;;;;5074193;28;20799;-67
2023/12/30 02:27:42;;;;;;;3.67;3.37;;;8.10;99.90;;;;;;5072468;28;20473;-67
2023/12/30 02:30:08;;;;;;;3.50;3.20;;;8.10;99.90;;;;;;5073754;28;20481;-67
2023/12/30 02:32:33;;;;;;;3.50;3.20;;;8.10;99.90;;;;;;5072813;28;20834;-67
2023/12/30 02:34:59;;;;;;;5.40;2.80;;;8.10;99.90;;;;;;5073564;28;20607;-67
2023/12/30 02:37:25;;;;;;;8.03;3.43;;;8.10;99.90;;;;;;5073646;28;20302;-68
2023/12/30 02:39:50;;;;;;;3.23;2.93;;;8.10;99.90;;;;;;5073788;28;20637;-67
2023/12/30 02:42:16;;;;;;;3.37;2.80;;;8.10;99.90;;;;;;5073642;28;20207;-67
2023/12/30 02:44:41;;;;;;;4.53;3.47;;;8.10;99.90;;;;;;5073798;28;20177;-68
2023/12/30 02:47:07;;;;;;;5.23;3.20;;;8.10;99.90;;;;;;5073235;28;20196;-67
2023/12/30 02:49:33;;;;;;;3.67;2.77;;;8.00;99.90;;;;;;5073592;28;20173;-68
2023/12/30 02:51:59;;;;;;;4.30;3.40;;;8.00;99.90;;;;;;5073651;28;20189;-67
2023/12/30 02:54:25;;;;;;;3.70;3.40;;;8.10;99.90;;;;;;5073377;28;20425;-67
2023/12/30 02:56:51;;;;;;;4.13;2.80;;;8.00;99.90;;;;;;5073191;28;20907;-67
2023/12/30 02:59:16;;;;;;;3.43;2.83;;;8.00;99.90;;;;;;5073442;28;20427;-67
2023/12/30 03:01:42;;;;;;;4.80;3.50;;;8.00;99.90;;;;;;5073198;28;20209;-67
2023/12/30 03:04:07;;;;;;;2.80;2.50;;;7.90;99.90;;;;;;5073497;28;20549;-67
2023/12/30 03:06:33;;;;;;;4.50;2.97;;;7.90;99.90;;;;;;5072899;28;20233;-68
2023/12/30 03:08:59;;;;;;;3.27;2.70;;;7.90;99.90;;;;;;5073196;28;20176;-67
2023/12/30 03:11:25;;;;;;;2.93;2.63;;;7.90;99.90;;;;;;5073210;28;20196;-67
2023/12/30 03:13:51;;;;;;;2.93;2.63;;;7.80;99.90;;;;;;5073183;28;20414;-67
2023/12/30 03:16:18;;;;;;;3.17;2.87;;;7.80;99.90;;;;;;5072870;28;20419;-67
2023/12/30 03:18:44;;;;;;;3.37;3.07;;;7.80;99.90;;;;;;5071788;28;20217;-67
2023/12/30 03:21:14;;;;;;;6.83;3.50;;;7.80;99.90;;;;;;5072600;28;20459;-67
2023/12/30 03:23:40;;;;;;;4.27;2.93;;;7.80;99.90;;;;;;5071213;28;20431;-67
2023/12/30 03:26:08;;;;;;;4.87;3.30;;;7.80;99.90;;;;;;5072748;28;20431;-67
2023/12/30 03:28:33;;;;;;;4.90;2.97;;;7.80;99.90;;;;;;5072675;28;20972;-67
2023/12/30 03:30:59;;;;;;;3.23;2.93;;;7.70;99.90;;;;;;5072739;28;20434;-67
2023/12/30 03:33:25;;;;;;;2.70;2.50;;;7.70;99.90;;;;;;5072657;28;20205;-67
2023/12/30 03:35:51;;;;;;;4.37;2.77;;;7.70;99.90;;;;;;5072828;28;20176;-67
2023/12/30 03:38:16;;;;;;;4.10;3.37;;;7.70;99.90;;;;;;5072318;28;20916;-67
2023/12/30 03:40:42;;;;;;;2.83;2.63;;;7.70;99.90;;;;;;5072582;28;20630;-68
2023/12/30 03:43:07;;;;;;;5.43;2.83;;;7.70;99.90;;;;;;5070733;28;20199;-67
2023/12/30 03:45:33;;;;;;;4.60;2.90;;;7.70;99.90;;;;;;5072464;28;20177;-67
2023/12/30 03:47:59;;;;;;;2.63;2.27;;;7.60;99.90;;;;;;5072167;28;20228;-67
2023/12/30 03:50:25;;;;;;;3.47;3.00;;;7.70;99.90;;;;;;5072508;28;20242;-68
2023/12/30 03:52:51;;;;;;;2.83;2.63;;;7.70;99.90;;;;;;5070961;28;20443;-67
2023/12/30 03:55:17;;;;;;;3.37;2.87;;;7.70;99.90;;;;;;5071410;28;20892;-67
2023/12/30 03:57:42;;;;;;;2.40;2.23;;;7.70;99.90;;;;;;5072161;28;20476;-68
2023/12/30 04:00:08;;;;;;;5.53;2.70;;;7.70;99.90;;;;;;5072120;28;20173;-68
2023/12/30 04:02:34;;;;;;;3.43;2.40;;;7.70;99.90;;;;;;5072048;28;20239;-67
2023/12/30 04:04:59;;;;;;;2.97;2.67;;;7.70;99.90;;;;;;5072298;28;20459;-67
2023/12/30 04:07:25;;;;;;;3.27;2.57;;;7.70;99.90;;;;;;5070555;28;20235;-67
2023/12/30 04:09:50;;;;;;;2.47;2.27;;;7.70;99.90;;;;;;5072208;28;20181;-67
2023/12/30 04:12:16;;;;;;;2.47;2.27;;;7.70;99.90;;;;;;5072163;28;20189;-67
2023/12/30 04:14:41;;;;;;;4.87;2.10;;;7.70;99.90;;;;;;5072252;28;20172;-67
2023/12/30 04:17:07;;;;;;;3.40;2.60;;;7.70;99.90;;;;;;5071904;28;20322;-68
2023/12/30 04:19:32;;;;;;;2.60;2.40;;;7.70;99.90;;;;;;5072142;28;20740;-67
2023/12/30 04:21:58;;;;;;;2.90;2.23;;;7.70;99.90;;;;;;5071832;28;20673;-67
2023/12/30 04:24:23;;;;;;;3.17;2.30;;;7.70;99.90;;;;;;5072083;28;20316;-67
2023/12/30 04:26:51;;;;;;;4.67;2.90;;;7.70;99.90;;;;;;5069492;28;20196;-67
2023/12/30 04:29:16;;;;;;;2.33;1.90;;;7.70;99.90;;;;;;5071912;28;20173;-67
2023/12/30 04:31:42;;;;;;;2.30;2.10;;;7.70;99.90;;;;;;5071846;28;20439;-68
2023/12/30 04:34:07;;;;;;;2.90;2.20;;;7.70;99.90;;;;;;5072063;28;20181;-67
2023/12/30 04:36:33;;;;;;;2.20;2.00;;;7.70;99.90;;;;;;5071360;28;20173;-67
2023/12/30 04:38:58;;;;;;;4.27;2.50;;;7.70;99.90;;;;;;5071886;28;20214;-68
2023/12/30 04:41:24;;;;;;;3.10;2.47;;;7.70;99.90;;;;;;5071855;28;20256;-67
2023/12/30 04:43:49;;;;;;;2.50;2.30;;;7.70;99.90;;;;;;5071774;28;20176;-67
2023/12/30 04:46:15;;;;;;;2.30;1.97;;;7.70;99.90;;;;;;5071734;28;20205;-67
2023/12/30 04:48:40;;;;;;;2.90;1.77;;;7.70;99.90;;;;;;5071735;28;20533;-67
2023/12/30 04:51:06;;;;;;;5.07;1.77;;;7.80;99.90;;;;;;5071623;28;20173;-68
2023/12/30 04:53:33;;;;;;;2.77;1.83;;;7.80;99.90;;;;;;5071570;28;20223;-67
2023/12/30 04:55:58;;;;;;;2.23;2.03;;;7.80;99.90;;;;;;5075372;28;20226;-68
2023/12/30 04:58:24;;;;;;;1.90;1.80;;;7.80;99.90;;;;;;5075567;28;20431;-68
2023/12/30 05:00:49;;;;;;;2.93;1.77;;;7.80;99.90;;;;;;5075672;28;20188;-67
2023/12/30 05:03:16;;;;;;;2.03;1.87;;;7.80;99.90;;;;;;5075595;28;20215;-67
2023/12/30 05:05:42;;;;;;;1.73;1.63;;;7.90;99.90;;;;;;5075708;28;20183;-68
2023/12/30 05:08:07;;;;;;;1.77;1.67;;;7.90;99.90;;;;;;5075259;28;20454;-68
2023/12/30 05:10:33;;;;;;;3.30;1.70;;;7.90;99.90;;;;;;5075390;28;20807;-67
2023/12/30 05:13:00;;;;;;;3.83;2.00;;;7.80;99.90;;;;;;5075347;28;20184;-68
2023/12/30 05:15:26;;;;;;;2.33;1.53;;;7.80;99.90;;;;;;5075529;28;20173;-67
2023/12/30 05:17:51;;;;;;;2.87;1.40;;;7.80;99.90;;;;;;5075112;28;20488;-67
2023/12/30 05:20:17;;;;;;;6.00;2.10;;;7.80;99.90;;;;;;5075312;28;20189;-68
2023/12/30 05:22:43;;;;;;;2.40;1.30;;;7.80;99.90;;;;;;5075337;28;20199;-68
2023/12/30 05:25:09;;;;;;;1.60;1.50;;;7.80;99.90;;;;;;5075144;28;21104;-68
2023/12/30 05:27:35;;;;;;;2.47;1.43;;;7.80;99.90;;;;;;5074945;28;20204;-67
2023/12/30 05:30:01;;;;;;;3.83;1.40;;;7.80;99.90;;;;;;5075258;28;20531;-67
2023/12/30 05:32:26;;;;;;;1.90;1.60;;;7.80;99.90;;;;;;5075092;28;20970;-67
2023/12/30 05:34:52;;;;;;;5.97;2.00;;;7.80;99.90;;;;;;5074885;28;20169;-68
2023/12/30 05:37:17;;;;;;;4.77;1.80;;;7.80;99.90;;;;;;5074644;28;20196;-68
2023/12/30 05:39:43;;;;;;;1.47;1.20;;;7.80;99.90;;;;;;5075088;28;20295;-67
2023/12/30 05:42:09;;;;;;;3.13;1.50;;;7.80;99.90;;;;;;5074882;28;20212;-67
2023/12/30 05:44:36;;;;;;;1.73;1.63;;;7.80;99.90;;;;;;5074757;28;20423;-68
2023/12/30 05:47:02;;;;;;;4.60;1.67;;;7.80;99.90;;;;;;5054645;28;20272;-67
2023/12/30 05:49:27;;;;;;;2.10;1.63;;;7.80;99.90;;;;;;5071829;28;20423;-67
2023/12/30 05:51:53;;;;;;;1.40;1.30;;;7.80;99.90;;;;;;5074569;28;20453;-68
2023/12/30 05:54:19;;;;;;;1.67;1.57;;;7.80;99.90;;;;;;5074738;28;20594;-68
2023/12/30 05:56:44;;;;;;;2.10;1.43;;;7.80;99.90;;;;;;5073389;28;20206;-67
2023/12/30 05:59:10;;;;;;;2.50;1.33;;;7.80;99.90;;;;;;5073844;28;20654;-68
2023/12/30 06:04:14;;;;;;;1.60;1.47;;;7.90;99.90;;;;;;5067113;28;20657;-68
2023/12/30 06:06:40;;;;;;;2.60;1.60;;;7.80;99.90;;;;;;5071759;28;20458;-68
2023/12/30 06:09:07;;;;;;;2.53;1.60;;;7.80;99.90;;;;;;5074449;28;20430;-68
2023/12/30 06:11:32;;;;;;;2.40;2.00;;;7.80;99.90;;;;;;5074602;28;20407;-68
2023/12/30 06:13:58;;;;;;;2.50;1.70;;;7.80;99.90;;;;;;5074304;28;20442;-68
2023/12/30 06:16:23;;;;;;;3.90;1.73;;;7.80;99.90;;;;;;5074057;28;20226;-68
2023/12/30 06:18:49;;;;;;;2.40;1.10;;;7.70;99.90;;;;;;5074203;28;20300;-68
2023/12/30 06:21:14;;;;;;;2.23;1.70;;;7.70;99.90;;;;;;5074302;28;20526;-68
2023/12/30 06:23:39;;;;;;;1.60;1.50;;;7.70;99.90;;;;;;5074266;28;20189;-68
2023/12/30 06:26:05;;;;;;;1.63;1.50;;;7.70;99.90;;;;;;5074412;28;20177;-68
2023/12/30 06:28:30;;;;;;;2.47;1.40;;;7.70;99.90;;;;;;5073904;28;20207;-69
2023/12/30 06:30:56;;;;;;;1.30;1.20;;;7.70;99.90;;;;;;5074087;28;20165;-68
2023/12/30 06:33:22;;;;;;;1.67;1.50;;;7.70;99.90;;;;;;5074105;28;20185;-68
2023/12/30 06:35:48;;;;;;;2.33;1.17;;;7.70;99.90;;;;;;5074147;28;20189;-68
2023/12/30 06:38:14;;;;;;;2.73;1.70;;;7.60;99.90;;;;;;5073632;28;20458;-68
2023/12/30 06:40:41;;;;;;;3.47;1.93;;;7.70;99.90;;;;;;5074158;28;20177;-68
2023/12/30 06:43:07;;;;;;;3.00;1.90;;;7.70;99.90;;;;;;5073838;28;20454;-68
2023/12/30 06:45:33;;;;;;;2.70;1.43;;;7.70;99.90;;;;;;5073752;28;20438;-68
2023/12/30 06:47:58;;;;;;;3.37;1.70;;;7.70;99.90;;;;;;5072239;28;20458;-68
2023/12/30 06:50:24;;;;;;;4.43;1.90;;;7.70;99.90;;;;;;5073694;28;20609;-68
2023/12/30 06:52:50;;;;;;;2.03;1.83;;;7.70;99.90;;;;;;5073512;28;20204;-68
2023/12/30 06:55:15;;;;;;;2.10;1.93;;;7.70;99.90;;;;;;5073726;28;20392;-68
2023/12/30 06:57:41;;;;;;;2.70;2.07;;;7.70;99.90;;;;;;5073423;28;20178;-68
2023/12/30 07:00:07;;;;;;;2.70;2.13;;;7.60;99.90;;;;;;5073474;28;20677;-68
2023/12/30 07:02:33;;;;;;;5.90;2.13;;;7.60;99.90;;;;;;5073382;28;20274;-68
2023/12/30 07:04:59;;;;;;;2.40;2.00;;;7.60;99.90;;;;;;5073399;28;20848;-68
2023/12/30 07:07:24;;;;;;;3.83;2.00;;;7.60;99.90;;;;;;5072920;28;20463;-68
2023/12/30 07:09:50;;;;;;;4.23;2.50;;;7.60;99.90;;;;;;5073276;28;20173;-68
2023/12/30 07:12:16;;;;;;;4.30;2.30;;;7.60;99.90;;;;;;5073363;28;20263;-68
2023/12/30 07:14:42;;;;;;;3.93;2.30;;;7.60;99.90;;;;;;5073119;28;20171;-68
2023/12/30 07:17:08;;;;;;;5.40;2.10;;;7.60;99.90;;;;;;5071901;28;20420;-68
2023/12/30 07:19:33;;;;;;;2.60;2.13;;;7.60;99.90;;;;;;5073410;28;20635;-68
2023/12/30 07:21:59;;;;;;;4.90;2.80;;;7.60;99.90;;;;;;5073036;28;20196;-68
2023/12/30 07:24:25;;;;;;;4.70;2.40;;;7.60;99.90;;;;;;5072369;28;20177;-68
2023/12/30 07:26:50;;;;;;;3.67;2.87;;;7.60;99.90;;;;;;5071887;28;20455;-69
2023/12/30 07:29:16;;;;;;;2.27;2.07;;;7.60;99.90;;;;;;5072827;28;20172;-68
2023/12/30 07:31:41;;;;;;;3.80;2.83;;;7.60;99.90;;;;;;5072832;28;20169;-68
2023/12/30 07:34:07;;;;;;;3.83;2.53;;;7.70;99.90;;;;;;5072966;28;20165;-68
2023/12/30 07:36:33;;;;;;;3.57;2.67;;;7.70;99.90;;;;;;5072044;28;20165;-68
2023/12/30 07:38:58;;;;;;;5.80;2.60;;;7.70;99.90;;;;;;5071850;28;20252;-68
2023/12/30 07:41:24;;;;;;;3.53;3.20;;;7.70;99.90;;;;;;5072675;28;20176;-68
2023/12/30 07:43:49;;;;;;;3.90;2.53;;;7.70;99.90;;;;;;5072570;28;20189;-68
2023/12/30 07:46:15;;;;;;;5.00;2.67;;;7.80;99.90;;;;;;5072406;28;20226;-68
2023/12/30 07:48:42;;;;;;;4.80;3.07;;;7.80;99.90;;;;;;5072368;28;20242;-68
2023/12/30 07:51:08;;;;;;;6.60;3.30;;;7.80;99.90;;;;;;5072479;28;20833;-68
2023/12/30 07:53:34;;;;;;;4.00;2.50;;;7.80;99.90;;;;;;5072364;28;20446;-68
2023/12/30 07:55:59;;;;;;;4.50;2.80;;;7.80;99.90;;;;;;5072570;28;20180;-68
2023/12/30 07:58:25;;;;;;;3.33;2.47;;;7.90;99.90;;;;;;5071420;28;20840;-69
2023/12/30 08:00:50;;;;;;;2.43;2.17;;;8.00;99.90;;;;;;5071430;28;20180;-68
2023/12/30 08:03:16;;;;;;;3.53;2.47;;;8.10;99.90;;;;;;5072287;28;20313;-68
2023/12/30 08:05:41;;;;;;;4.57;2.50;;;8.10;99.90;;;;;;5072466;28;20200;-68
2023/12/30 08:08:08;;;;;;;4.90;3.37;;;8.20;99.90;;;;;;5072005;28;20199;-68
2023/12/30 08:10:34;;;;;;;4.20;2.60;;;8.20;99.90;;;;;;5072388;28;20557;-68
2023/12/30 08:13:00;;;;;;;2.70;2.13;;;8.20;99.90;;;;;;5072149;28;20926;-68
2023/12/30 08:15:25;;;;;;;2.33;1.90;;;8.30;99.90;;;;;;5072139;28;20450;-68
2023/12/30 08:17:51;;;;;;;2.00;1.80;;;8.30;99.90;;;;;;5071939;28;20164;-68
2023/12/30 08:20:18;;;;;;;3.07;2.87;;;8.40;99.90;;;;;;5071370;28;20603;-68
2023/12/30 08:22:43;;;;;;;4.50;2.93;;;8.40;99.90;;;;;;5071691;28;20193;-68
2023/12/30 08:25:09;;;;;;;2.50;1.80;;;8.50;99.90;;;;;;5071842;28;20515;-68
2023/12/30 08:27:36;;;;;;;3.23;2.57;;;8.60;99.90;;;;;;5071608;28;20196;-68
2023/12/30 08:30:02;;;;;;;2.37;1.70;;;8.70;99.90;;;;;;5071648;28;20434;-68
2023/12/30 08:32:27;;;;;;;2.40;2.20;;;8.80;99.90;;;;;;5071999;28;20441;-68
2023/12/30 08:34:54;;;;;;;1.80;1.70;;;9.00;99.90;;;;;;5071878;28;20919;-68
2023/12/30 08:37:20;;;;;;;2.23;1.80;;;9.30;99.90;;;;;;5071235;28;20164;-68
2023/12/30 08:39:48;;;;;;;2.33;1.47;;;9.50;99.90;;;;;;5070990;28;20518;-69
2023/12/30 08:42:13;;;;;;;1.77;1.67;;;9.50;99.90;;;;;;5070048;28;20196;-68
2023/12/30 08:44:43;;;;;;;5.33;2.20;;;9.50;99.90;;;;;;5065399;28;20420;-68
2023/12/30 08:47:12;;;;;;;3.77;2.10;;;9.60;99.90;;;;;;5051530;28;20584;-68
2023/12/30 08:49:38;;;;;;;2.90;1.83;;;9.50;99.90;;;;;;5071434;28;20430;-68
2023/12/30 08:52:04;;;;;;;2.23;1.80;;;9.30;99.90;;;;;;5062968;28;20806;-68
2023/12/30 08:54:31;;;;;;;2.50;1.47;;;9.30;99.90;;;;;;5064070;28;20908;-68
2023/12/30 08:56:56;;;;;;;3.73;2.13;;;9.20;99.90;;;;;;5055159;28;20428;-68
2023/12/30 08:59:24;;;;;;;2.30;1.90;;;9.20;99.90;;;;;;5061884;28;20435;-68
2023/12/30 09:01:49;;;;;;;1.60;1.50;;;9.20;99.90;;;;;;5060413;28;20172;-68
2023/12/30 09:04:15;;;;;;;2.93;1.50;;;9.20;99.90;;;;;;5071732;28;20431;-68
2023/12/30 09:06:40;;;;;;;1.60;1.50;;;9.20;99.90;;;;;;5058048;28;20173;-68
2023/12/30 09:09:06;;;;;;;3.53;1.60;;;9.30;99.90;;;;;;5069110;28;20236;-68
2023/12/30 09:11:38;;;;;;;2.07;1.47;;;9.30;99.90;;;;;;5057127;28;20570;-68
2023/12/30 09:14:05;;;;;;;2.00;1.80;;;9.40;99.90;;;;;;5057257;28;20169;-68
2023/12/30 09:16:32;;;;;;;2.30;1.50;;;9.40;99.90;;;;;;5063945;28;20420;-68
2023/12/30 09:18:57;;;;;;;1.53;1.43;;;9.50;99.90;;;;;;5055829;28;20470;-68
2023/12/30 09:21:23;;;;;;;1.73;1.50;;;9.60;99.90;;;;;;5063609;28;20419;-68
2023/12/30 09:23:49;;;;;;;1.80;1.50;;;9.60;99.90;;;;;;5070064;28;20544;-68
2023/12/30 09:26:16;;;;;;;2.07;1.57;;;9.70;99.90;;;;;;5059463;28;20433;-68
2023/12/30 09:28:41;;;;;;;4.30;1.50;;;9.80;99.90;;;;;;5061898;28;20192;-68
2023/12/30 09:31:07;;;;;;;1.70;1.40;;;9.90;99.90;;;;;;5066448;28;20935;-68
2023/12/30 09:33:32;;;;;;;1.67;1.43;;;10.10;99.90;;;;;;5060404;28;20185;-68
2023/12/30 09:35:58;;;;;;;1.70;1.50;;;10.50;99.90;;;;;;5055450;28;20166;-68
2023/12/30 09:38:24;;;;;;;2.50;1.73;;;11.40;99.90;;;;;;5056874;28;20178;-69
2023/12/30 09:40:51;;;;;;;1.17;1.10;;;12.80;99.90;;;;;;5061537;28;20177;-69
2023/12/30 09:43:24;;;;;;;1.60;1.37;;;14.20;99.90;;;;;;5064016;28;20265;-68
2023/12/30 09:45:51;;;;;;;2.07;1.80;;;15.10;99.90;;;;;;5058710;28;20427;-69
2023/12/30 09:48:24;;;;;;;1.60;1.50;;;15.30;99.90;;;;;;5066642;28;20466;-69
2023/12/30 09:50:51;;;;;;;1.43;1.33;;;14.60;99.90;;;;;;5062422;28;20432;-68
2023/12/30 09:53:16;;;;;;;1.83;1.60;;;14.00;99.90;;;;;;5055431;28;20443;-68
2023/12/30 09:55:52;;;;;;;1.33;1.23;;;14.20;99.90;;;;;;5068071;28;20430;-69
2023/12/30 09:58:19;;;;;;;3.40;1.60;;;14.70;99.90;;;;;;5061182;28;20522;-68
2023/12/30 10:00:45;;;;;;;1.30;1.20;;;14.10;99.90;;;;;;5056540;28;20787;-68
2023/12/30 10:03:11;;;;;;;1.80;1.10;;;13.30;99.90;;;;;;5070276;28;20515;-68
2023/12/30 10:05:37;;;;;;;1.97;1.83;;;12.70;99.90;;;;;;5065979;28;20342;-68
2023/12/30 10:08:04;;;;;;;2.13;1.57;;;12.30;99.90;;;;;;5062883;28;20981;-68
2023/12/30 10:10:53;;;;;;;2.00;1.43;;;11.90;99.90;;;;;;5057256;28;20471;-68
2023/12/30 10:13:22;;;;;;;1.23;1.13;;;11.50;99.90;;;;;;5072107;28;20446;-68
2023/12/30 10:15:48;;;;;;;1.80;1.10;;;11.20;99.90;;;;;;5073267;28;20435;-69
2023/12/30 10:18:15;;;;;;;1.53;1.43;;;11.10;99.90;;;;;;5072870;28;21092;-68
2023/12/30 10:20:44;;;;;;;1.80;1.43;;;11.00;99.90;;;;;;5073269;28;20450;-69
2023/12/30 10:23:10;;;;;;;1.47;1.37;;;11.00;99.90;;;;;;5073219;28;20457;-69
2023/12/30 10:25:37;;;;;;;2.10;1.33;;;11.10;99.90;;;;;;5073241;28;20427;-68
2023/12/30 10:28:03;;;;;;;4.07;1.20;;;11.20;99.90;;;;;;5072738;28;20535;-66
2023/12/30 10:30:30;;;;;;;2.60;1.30;;;11.30;99.90;;;;;;5073095;28;20430;-66
2023/12/30 10:33:07;;;;;;;2.17;1.33;;;11.30;99.90;;;;;;5072715;28;20443;-66
2023/12/30 10:35:32;;;;;;;2.00;1.10;;;11.40;99.90;;;;;;5071701;28;20426;-67
2023/12/30 10:38:00;;;;;;;1.30;1.10;;;11.40;99.90;;;;;;5072690;28;20419;-70
2023/12/30 10:40:26;;;;;;;1.87;1.77;;;11.50;99.90;;;;;;5072884;28;20610;-68
2023/12/30 10:42:52;;;;;;;3.47;1.10;;;12.00;99.90;;;;;;5072892;28;20534;-67
2023/12/30 10:45:17;;;;;;;1.37;1.17;;;12.80;99.90;;;;;;5069303;28;20173;-69
2023/12/30 10:47:45;;;;;;;2.30;1.40;;;13.80;99.90;;;;;;5070443;28;20549;-68
2023/12/30 10:50:12;;;;;;;2.73;1.60;;;15.20;99.90;;;;;;5072765;28;20567;-68
2023/12/30 10:52:46;;;;;;;0.83;0.80;;;16.20;99.90;;;;;;5072488;28;20455;-69
2023/12/30 10:55:15;;;;;;;1.40;1.30;;;16.90;99.90;;;;;;5072598;28;20430;-69
2023/12/30 10:57:49;;;;;;;2.30;1.37;;;17.30;99.90;;;;;;5072119;28;20505;-69
2023/12/30 11:00:20;;;;;;;1.13;1.10;;;16.80;99.40;;;;;;5070841;28;20419;-69
2023/12/30 11:02:47;;;;;;;1.27;1.27;;;17.30;97.30;;;;;;5070748;28;20463;-69
2023/12/30 11:05:24;;;;;;;1.97;1.40;;;18.00;95.80;;;;;;5069350;28;20843;-69
2023/12/30 11:07:49;;;;;;;1.50;1.30;;;18.40;92.90;;;;;;5070967;28;20455;-68
2023/12/30 11:10:20;;;;;;;4.07;1.53;;;19.70;87.60;;;;;;5072177;28;20431;-69
2023/12/30 11:12:45;;;;;;;1.00;0.90;;;20.50;80.70;;;;;;5070561;28;20197;-69
2023/12/30 11:15:30;;;;;;;1.10;0.90;;;21.60;73.60;;;;;;5072098;28;20430;-70
2023/12/30 11:17:59;;;;;;;0.90;0.90;;;22.40;65.70;;;;;;5071766;28;20177;-70
2023/12/30 11:20:30;;;;;;;1.00;1.00;;;23.00;59.30;;;;;;5072000;28;20427;-69
2023/12/30 11:23:03;;;;;;;1.10;1.00;;;23.00;57.30;;;;;;5071803;28;20439;-68
2023/12/30 11:25:37;;;;;;;0.90;0.90;;;22.70;56.20;;;;;;5070186;28;20492;-69
2023/12/30 11:28:22;;;;;;;0.97;0.87;;;22.70;56.00;;;;;;5070151;28;20451;-70
2023/12/30 11:31:00;;;;;;;0.80;0.80;;;25.00;52.40;;;;;;5068011;28;20427;-70
2023/12/30 11:33:26;;;;;;;0.97;0.80;;;26.40;45.50;;;;;;5069913;28;21002;-69
2023/12/30 11:35:54;;;;;;;1.03;0.93;;;24.30;45.70;;;;;;5067052;28;20442;-70
2023/12/30 11:38:20;;;;;;;1.10;0.83;;;24.50;46.60;;;;;;5071177;28;20947;-72
2023/12/30 11:40:54;;;;;;;0.90;0.90;;;24.70;45.40;;;;;;5071915;28;20431;-71
2023/12/30 11:43:21;;;;;;;1.00;1.00;;;24.30;45.00;;;;;;5071924;28;20450;-69
2023/12/30 11:45:47;;;;;;;1.10;1.00;;;24.10;45.90;;;;;;5071582;28;20430;-68
2023/12/30 11:48:14;;;;;;;0.97;0.87;;;23.10;45.70;;;;;;5071723;28;20450;-70
2023/12/30 11:50:39;;;;;;;1.00;0.90;;;21.20;49.10;;;;;;5071794;28;20427;-69
2023/12/30 11:53:07;;;;;;;0.83;0.83;;;21.50;50.30;;;;;;5071708;28;20450;-70
2023/12/30 11:55:32;;;;;;;1.80;1.40;;;22.80;48.80;;;;;;5071653;28;20430;-71
2023/12/30 11:57:58;;;;;;;1.67;1.40;;;23.60;47.20;;;;;;5065954;28;20431;-72
2023/12/30 12:00:27;;;;;;;3.37;1.00;;;26.20;43.30;;;;;;5070783;28;20201;-71
2023/12/30 12:02:54;;;;;;;1.60;1.00;;;25.30;42.10;;;;;;5093090;22;20231;-69
2023/12/30 12:05:20;;;;;;;0.97;0.90;;;24.00;43.80;;;;;;5062871;28;20489;-69
2023/12/30 12:07:45;;;;;;;0.97;0.90;;;23.90;44.30;;;;;;5064737;28;20903;-69
2023/12/30 12:10:11;;;;;;;1.07;1.00;;;24.00;45.10;;;;;;5061468;28;20629;-69
2023/12/30 12:12:38;;;;;;;1.07;0.97;;;25.00;43.60;;;;;;5060821;28;20272;-69
2023/12/30 12:15:06;;;;;;;1.50;1.40;;;23.70;43.10;;;;;;5057677;28;20199;-69
2023/12/30 12:17:32;;;;;;;1.10;1.00;;;26.00;42.10;;;;;;5059880;28;20619;-68
2023/12/30 12:19:58;;;;;;;1.57;0.90;;;25.60;40.00;;;;;;5057447;28;20506;-69
2023/12/30 12:22:23;;;;;;;1.10;1.00;;;25.90;40.40;;;;;;5051760;28;20189;-69
2023/12/30 12:24:49;;;;;;;1.10;1.00;;;24.20;41.20;;;;;;5059665;28;20704;-69
2023/12/30 12:27:19;;;;;;;1.63;0.80;;;22.40;43.90;;;;;;5060075;28;20190;-68
2023/12/30 12:29:46;;;;;;;1.10;1.00;;;21.80;45.00;;;;;;5060374;28;20531;-68
2023/12/30 12:32:15;;;;;;;2.17;1.10;;;21.10;46.90;;;;;;5059582;28;20439;-69
2023/12/30 12:34:41;;;;;;;1.90;1.20;;;22.00;45.70;;;;;;5065134;28;20780;-69
2023/12/30 12:37:12;;;;;;;1.67;0.73;;;23.20;45.20;;;;;;5060852;28;20431;-69
2023/12/30 12:39:38;;;;;;;1.53;1.00;;;23.20;44.30;;;;;;5058929;28;20169;-69
2023/12/30 12:42:04;;;;;;;1.07;0.90;;;22.90;43.30;;;;;;5056055;28;20955;-69
2023/12/30 12:44:30;;;;;;;1.83;1.13;;;23.00;44.30;;;;;;5062430;28;20419;-69
2023/12/30 12:46:55;;;;;;;1.77;1.00;;;22.90;44.10;;;;;;5069054;28;20200;-69
2023/12/30 12:49:22;;;;;;;1.10;0.80;;;23.40;44.10;;;;;;5069611;28;20168;-69
2023/12/30 12:51:49;;;;;;;1.10;1.10;;;23.90;42.30;;;;;;5056186;28;20170;-69
2023/12/30 12:54:16;;;;;;;1.57;1.30;;;22.50;45.00;;;;;;5066474;28;20450;-69